Time;durP1;ratioP1;P1;durP2;ratioP2;P2;SDS_P1;SDS_P2;PMS_P1;PMS_P2;Temp;Humidity;BMP_temperature;BMP_pressure;BME280_temperature;BME280_humidity;BME280_pressure;Samples;Min_cycle;Max_cycle;Signal;HPM_P1;HPM_P2
2023/01/03 00:04:03;;;;;;;22.55;9.40;;;;;;;-3.27;96.74;100529.50;10509112;28;20049;-77
2023/01/03 00:09:08;;;;;;;24.13;10.88;;;;;;;-3.19;97.13;100521.31;10521759;28;20044;-77
2023/01/03 00:14:13;;;;;;;21.88;9.98;;;;;;;-3.23;97.30;100520.03;10492987;28;20056;-76
2023/01/03 00:19:16;;;;;;;23.45;11.20;;;;;;;-3.25;97.47;100512.19;10493644;28;20399;-78
2023/01/03 00:24:43;;;;;;;21.17;11.13;;;;;;;-3.05;97.77;100505.13;10498614;28;20088;-76
2023/01/03 00:29:45;;;;;;;20.00;10.25;;;;;;;-2.94;97.65;100501.06;10526621;28;20044;-78
2023/01/03 00:34:47;;;;;;;21.42;9.73;;;;;;;-3.13;97.47;100501.75;10505968;28;20037;-78
2023/01/03 00:39:50;;;;;;;19.63;9.77;;;;;;;-3.09;97.26;100505.72;10513921;28;20427;-77
2023/01/03 00:44:52;;;;;;;19.95;9.73;;;;;;;-2.98;97.46;100494.41;10487825;28;20120;-78
2023/01/03 00:49:55;;;;;;;20.60;9.43;;;;;;;-3.01;97.12;100496.66;10485340;28;20585;-77
2023/01/03 00:54:57;;;;;;;17.60;8.40;;;;;;;-3.14;97.31;100483.97;10485911;28;20045;-77
2023/01/03 00:59:59;;;;;;;16.33;7.95;;;;;;;-3.06;97.37;100476.63;10515687;28;20520;-77
2023/01/03 01:05:02;;;;;;;12.40;6.47;;;;;;;-2.98;97.30;100462.19;10485896;28;20052;-76
2023/01/03 01:10:05;;;;;;;16.73;8.43;;;;;;;-2.85;97.20;100435.44;10488588;28;20490;-76
2023/01/03 01:15:07;;;;;;;16.95;8.00;;;;;;;-2.74;97.08;100412.56;10491626;28;20043;-78
2023/01/03 01:20:10;;;;;;;14.88;7.00;;;;;;;-2.88;96.35;100398.25;10502858;28;20044;-77
2023/01/03 01:25:13;;;;;;;18.63;8.43;;;;;;;-2.84;96.31;100377.19;10520095;28;20668;-76
2023/01/03 01:30:15;;;;;;;11.25;6.57;;;;;;;-2.88;96.39;100365.22;10507907;28;20041;-77
2023/01/03 01:35:17;;;;;;;15.77;8.35;;;;;;;-2.95;96.14;100357.13;10485007;28;20400;-77
2023/01/03 01:40:20;;;;;;;14.57;7.20;;;;;;;-3.08;96.54;100347.16;10487907;28;20048;-77
2023/01/03 01:45:26;;;;;;;12.63;7.78;;;;;;;-3.21;96.17;100332.84;10519636;28;20060;-78
2023/01/03 01:50:34;;;;;;;9.88;6.75;;;;;;;-3.10;96.54;100310.81;10502648;28;20051;-77
2023/01/03 01:55:45;;;;;;;12.20;7.30;;;;;;;-3.04;96.57;100302.78;10516502;28;20048;-77
2023/01/03 02:00:51;;;;;;;11.55;6.30;;;;;;;-3.00;96.75;100291.63;10518824;28;20403;-76
2023/01/03 02:05:55;;;;;;;9.85;5.55;;;;;;;-3.04;96.40;100285.84;10523605;28;20048;-77
2023/01/03 02:11:15;;;;;;;13.30;6.85;;;;;;;-3.06;96.02;100277.19;10527092;28;20056;-76
2023/01/03 02:16:49;;;;;;;9.65;5.28;;;;;;;-2.90;96.45;100279.50;10527707;28;20049;-76
2023/01/03 02:22:07;;;;;;;10.25;5.47;;;;;;;-2.76;96.38;100297.31;10499462;28;20080;-77
2023/01/03 02:27:31;;;;;;;7.75;4.90;;;;;;;-2.69;95.93;100270.47;10513022;28;20044;-77
2023/01/03 02:32:41;;;;;;;6.15;4.50;;;;;;;-2.87;95.38;100286.31;10513509;28;20051;-77
2023/01/03 02:38:20;;;;;;;7.38;4.50;;;;;;;-3.04;94.95;100272.44;10492347;28;20052;-77
2023/01/03 02:43:22;;;;;;;6.50;4.35;;;;;;;-3.01;95.26;100269.34;10514574;28;20053;-77
2023/01/03 02:48:51;;;;;;;7.93;5.32;;;;;;;-3.02;94.96;100246.22;10491166;28;20043;-78
2023/01/03 02:53:54;;;;;;;8.48;3.42;;;;;;;-2.94;95.05;100255.97;10525257;28;20041;-78
2023/01/03 02:59:04;;;;;;;7.93;4.45;;;;;;;-2.91;95.13;100253.69;10519026;28;20044;-76
2023/01/03 03:04:12;;;;;;;7.05;5.05;;;;;;;-3.08;94.78;100241.66;10518651;28;20406;-77
2023/01/03 03:09:19;;;;;;;6.18;4.28;;;;;;;-3.14;94.61;100208.41;10497806;28;20052;-77
2023/01/03 03:14:32;;;;;;;6.00;4.05;;;;;;;-3.27;94.79;100183.41;10514255;28;20044;-79
2023/01/03 03:24:58;;;;;;;4.55;3.40;;;;;;;-3.22;94.94;100162.97;10526127;28;20033;-78
2023/01/03 03:30:03;;;;;;;5.85;2.67;;;;;;;-3.12;95.08;100167.97;10519661;28;20527;-76
2023/01/03 03:35:08;;;;;;;4.65;3.75;;;;;;;-3.18;94.91;100149.97;10520869;28;20503;-78
2023/01/03 03:46:04;;;;;;;5.32;3.40;;;;;;;-3.14;94.79;100127.06;10499905;28;20049;-77
2023/01/03 03:51:12;;;;;;;6.78;3.38;;;;;;;-3.18;94.59;100123.97;10515429;28;20056;-77
2023/01/03 03:56:15;;;;;;;;;;;;;;;-3.19;94.31;100100.84;10515371;28;20044;-78
2023/01/03 04:01:21;;;;;;;6.78;2.90;;;;;;;-3.29;94.28;100080.84;10499497;28;19927;-78
2023/01/03 04:06:50;;;;;;;5.60;3.00;;;;;;;-3.27;94.64;100095.69;10487118;28;20048;-78
2023/01/03 04:11:52;;;;;;;4.55;2.67;;;;;;;-3.08;94.38;100086.84;10520073;28;20491;-77
2023/01/03 04:16:55;;;;;;;5.30;3.45;;;;;;;-3.07;94.43;100087.66;10523749;28;20411;-80
2023/01/03 04:21:57;;;;;;;3.63;2.50;;;;;;;-3.19;94.06;100079.38;10499304;28;20037;-77
2023/01/03 04:27:00;;;;;;;4.93;3.42;;;;;;;-3.15;93.96;100067.22;10516251;28;20048;-77
2023/01/03 04:32:02;;;;;;;5.88;3.58;;;;;;;-3.25;94.21;100074.84;10520411;28;20044;-78
2023/01/03 04:37:04;;;;;;;6.10;3.40;;;;;;;-3.21;94.11;100060.00;10527295;28;20048;-78
2023/01/03 04:47:27;;;;;;;5.28;3.92;;;;;;;-3.14;94.34;100068.84;10512327;28;20159;-78
2023/01/03 04:52:29;;;;;;;5.47;3.45;;;;;;;-3.10;94.01;100050.50;10492119;28;20049;-77
2023/01/03 04:57:32;;;;;;;7.05;4.40;;;;;;;-3.11;93.94;100060.41;10519451;28;20043;-77
2023/01/03 05:02:34;;;;;;;4.32;3.20;;;;;;;-3.20;93.67;100039.34;10516932;28;20044;-77
2023/01/03 05:07:36;;;;;;;7.22;2.58;;;;;;;-3.12;93.90;100052.56;10500686;28;20045;-79
2023/01/03 05:12:38;;;;;;;2.78;2.45;;;;;;;-3.24;93.60;100044.31;10518354;28;20048;-77
2023/01/03 05:17:41;;;;;;;4.18;3.15;;;;;;;-3.24;93.79;100041.63;10497269;28;20064;-77
2023/01/03 05:28:04;;;;;;;3.42;1.70;;;;;;;-3.33;94.03;100011.47;10508303;28;20049;-77
2023/01/03 05:33:06;;;;;;;7.55;3.60;;;;;;;-3.28;93.73;100015.44;10515079;28;20045;-77
2023/01/03 05:38:09;;;;;;;4.20;2.85;;;;;;;-3.23;94.25;100015.63;10535354;28;20418;-78
2023/01/03 05:43:12;;;;;;;3.80;2.28;;;;;;;-3.24;94.18;100006.75;10500184;28;20045;-78
2023/01/03 05:48:14;;;;;;;4.35;2.65;;;;;;;-3.27;93.45;100009.03;10528387;28;20044;-77
2023/01/03 05:53:16;;;;;;;5.47;3.35;;;;;;;-3.36;93.59;100003.03;10516923;28;20049;-76
2023/01/03 05:58:18;;;;;;;3.03;2.22;;;;;;;-3.26;94.15;99987.34;10521475;28;20051;-76
2023/01/03 06:03:21;;;;;;;3.60;2.03;;;;;;;-3.29;93.50;99976.22;10522031;28;20041;-77
2023/01/03 06:08:24;;;;;;;5.60;3.53;;;;;;;-3.30;93.75;99975.34;10529717;28;20175;-77
2023/01/03 06:13:26;;;;;;;5.72;3.00;;;;;;;-3.30;93.31;99974.53;10523626;28;20400;-78
2023/01/03 06:18:28;;;;;;;4.68;3.08;;;;;;;-3.26;93.36;99960.53;10527123;28;20056;-77
2023/01/03 06:23:32;;;;;;;3.80;2.47;;;;;;;-3.27;93.36;99955.38;10524695;28;20044;-76
2023/01/03 06:28:34;;;;;;;4.43;3.42;;;;;;;-3.31;93.71;99952.25;10526957;28;20040;-76
2023/01/03 06:33:36;;;;;;;3.80;2.40;;;;;;;-3.30;93.85;99953.06;10525119;28;20044;-77
2023/01/03 06:38:39;;;;;;;5.72;3.22;;;;;;;-3.29;93.60;99949.38;10519006;28;20044;-76
2023/01/03 06:43:41;;;;;;;4.13;2.83;;;;;;;-3.29;93.65;99942.16;10513257;28;20036;-77
2023/01/03 06:54:06;;;;;;;4.25;2.58;;;;;;;-3.26;93.26;99928.34;10519339;28;20040;-78
2023/01/03 06:59:08;;;;;;;5.70;3.50;;;;;;;-3.17;93.49;99936.97;10511465;28;20398;-77
2023/01/03 07:04:12;;;;;;;5.85;3.88;;;;;;;-3.20;93.49;99937.41;10519145;28;20064;-76
2023/01/03 07:09:15;;;;;;;5.90;3.58;;;;;;;-3.14;93.45;99925.81;10522811;28;20040;-76
2023/01/03 07:14:18;;;;;;;6.38;3.75;;;;;;;-3.05;93.21;99933.44;10525659;28;20048;-78
2023/01/03 07:19:20;;;;;;;7.05;2.97;;;;;;;-3.03;92.80;99944.78;10491367;28;20041;-78
2023/01/03 07:24:22;;;;;;;8.40;4.03;;;;;;;-3.01;92.78;99938.38;10522692;28;20044;-79
2023/01/03 07:29:25;;;;;;;4.40;2.35;;;;;;;-3.07;93.04;99938.19;10511019;28;20043;-78
2023/01/03 07:34:27;;;;;;;5.97;3.63;;;;;;;-3.02;92.63;99937.56;10524669;28;20056;-77
2023/01/03 07:39:29;;;;;;;6.80;3.10;;;;;;;-3.06;92.83;99917.56;10520381;28;20087;-79
2023/01/03 07:44:31;;;;;;;5.55;3.65;;;;;;;-3.10;92.55;99925.22;10526299;28;20053;-79
2023/01/03 07:49:33;;;;;;;7.97;4.00;;;;;;;-3.17;93.04;99918.19;10501991;28;20055;-77
2023/01/03 07:54:36;;;;;;;7.45;3.50;;;;;;;-3.33;92.69;99912.22;10517071;28;20033;-78
2023/01/03 07:59:38;;;;;;;6.20;3.28;;;;;;;-3.39;93.49;99899.66;10508066;28;20052;-77
2023/01/03 08:04:40;;;;;;;4.20;3.17;;;;;;;-3.30;93.90;99919.03;10510788;28;20498;-77
2023/01/03 08:15:06;;;;;;;5.57;3.60;;;;;;;-3.33;94.38;99906.03;10522830;28;20048;-77
2023/01/03 08:20:08;;;;;;;5.50;3.25;;;;;;;-3.37;94.98;99902.13;10495933;28;20041;-77
2023/01/03 08:25:11;;;;;;;7.22;3.50;;;;;;;-3.37;95.34;99894.91;10528851;28;20048;-78
2023/01/03 08:30:13;;;;;;;5.07;3.50;;;;;;;-3.34;95.45;99891.81;10511838;28;20044;-77
2023/01/03 08:35:15;;;;;;;4.80;3.10;;;;;;;-3.38;96.19;99889.75;10508586;28;20036;-77
2023/01/03 08:40:18;;;;;;;5.05;3.25;;;;;;;-3.40;96.20;99886.47;10522726;28;20737;-76
2023/01/03 08:45:20;;;;;;;7.32;3.78;;;;;;;-3.42;96.40;99886.66;10524129;28;20045;-76
2023/01/03 08:50:25;;;;;;;5.30;3.25;;;;;;;-3.42;96.85;99877.81;10507974;28;20040;-76
2023/01/03 08:55:27;;;;;;;5.55;2.78;;;;;;;-3.39;97.04;99880.88;10522277;28;20041;-76
2023/01/03 09:00:29;;;;;;;4.80;2.97;;;;;;;-3.42;97.06;99877.81;10520266;28;20140;-76
2023/01/03 09:05:31;;;;;;;4.88;2.65;;;;;;;-3.38;96.47;99877.16;10526688;28;20498;-75
2023/01/03 09:10:34;;;;;;;5.88;3.00;;;;;;;-3.38;97.21;99866.44;10507524;28;20045;-76
2023/01/03 09:15:37;;;;;;;3.35;2.78;;;;;;;-3.39;97.13;99870.16;10485997;28;20048;-75
2023/01/03 09:20:39;;;;;;;7.40;2.63;;;;;;;-3.41;97.26;99850.75;10484876;28;20458;-76
2023/01/03 09:25:41;;;;;;;2.20;1.60;;;;;;;-3.36;97.09;99859.00;10486579;28;20388;-75
2023/01/03 09:30:44;;;;;;;2.05;1.48;;;;;;;-3.29;96.93;99863.53;10498538;28;20526;-76
2023/01/03 09:35:46;;;;;;;4.00;3.08;;;;;;;-3.26;97.42;99857.75;10502459;28;20056;-76
2023/01/03 09:40:59;;;;;;;4.25;2.90;;;;;;;-3.30;97.17;99857.31;10514947;28;20049;-84
2023/01/03 09:46:02;;;;;;;4.90;2.58;;;;;;;-3.30;96.49;99848.44;10516745;28;20447;-77
2023/01/03 10:03:42;;;;;;;4.65;3.08;;;;;;;-3.25;97.33;99854.84;10505926;28;20037;-74
2023/01/03 10:08:14;;;;;;;0.38;0.30;;;;;;;-2.99;96.66;99863.84;10498272;28;20044;-80
2023/01/03 10:13:59;;;;;;;3.83;1.50;;;;;;;-3.03;96.90;99847.34;10488269;28;20063;-78
2023/01/03 10:19:17;;;;;;;2.65;2.13;;;;;;;-2.92;96.35;99851.25;10508093;28;20040;-79
2023/01/03 10:24:23;;;;;;;2.15;1.13;;;;;;;-2.95;96.58;99846.28;10501867;28;20040;-85
2023/01/03 10:29:26;;;;;;;3.08;1.75;;;;;;;-2.91;96.28;99856.41;10503296;28;20494;-77
2023/01/03 10:34:28;;;;;;;4.38;2.80;;;;;;;-2.83;96.20;99836.53;10521955;28;20049;-76
2023/01/03 10:39:31;;;;;;;1.67;0.95;;;;;;;-2.76;96.31;99848.91;10523063;28;20135;-71
2023/01/03 10:44:33;;;;;;;2.95;2.42;;;;;;;-2.86;96.06;99853.06;10530260;28;20530;-73
2023/01/03 10:49:35;;;;;;;2.78;1.52;;;;;;;-2.88;96.29;99847.91;10516951;28;20085;-78
2023/01/03 10:54:53;;;;;;;3.90;2.30;;;;;;;-2.81;95.84;99848.69;10528849;28;20044;-89
2023/01/03 10:59:56;;;;;;;1.58;1.17;;;;;;;-2.75;95.73;99847.84;10499027;28;20075;-77
2023/01/03 11:05:24;;;;;;;1.77;1.35;;;;;;;-2.79;95.27;99854.66;10522450;28;20060;-78
2023/01/03 11:10:51;;;;;;;2.38;1.20;;;;;;;-2.69;95.55;99859.59;10501331;28;20053;-81
2023/01/03 11:15:56;;;;;;;3.45;1.90;;;;;;;-2.67;95.71;99860.19;10505413;28;20052;-81
2023/01/03 11:21:06;;;;;;;2.38;1.05;;;;;;;-2.73;95.42;99871.81;10522628;28;20032;-78
2023/01/03 11:26:33;;;;;;;3.65;1.00;;;;;;;-2.74;95.11;99884.41;10517550;28;20044;-79
2023/01/03 11:31:54;;;;;;;1.02;1.02;;;;;;;-2.85;95.11;99871.66;10531619;28;20392;-85
2023/01/03 11:37:11;;;;;;;1.90;0.93;;;;;;;-2.89;95.25;99889.22;10512157;28;20052;-84
2023/01/03 11:42:19;;;;;;;0.63;0.60;;;;;;;-2.89;95.70;99875.78;10516579;28;20043;-83
2023/01/03 11:47:54;;;;;;;4.95;1.70;;;;;;;-2.89;96.44;99888.41;10554718;28;20040;-85
2023/01/03 11:53:14;;;;;;;1.15;1.05;;;;;;;-2.89;96.67;99896.44;10483712;28;20040;-83
2023/01/03 11:58:33;;;;;;;2.47;1.67;;;;;;;-2.91;97.13;99898.53;10542522;28;20040;-81
2023/01/03 12:04:00;;;;;;;3.17;1.42;;;;;;;-2.94;97.40;99894.41;10535408;28;20052;-77
2023/01/03 12:09:21;;;;;;;0.68;0.68;;;;;;;-2.88;97.49;99898.91;10509641;28;20032;-81
2023/01/03 12:14:30;;;;;;;4.88;2.15;;;;;;;-2.84;97.51;99897.44;10532975;28;20044;-77
2023/01/03 12:19:44;;;;;;;6.20;1.90;;;;;;;-2.86;97.63;99912.94;10495717;28;20040;-79
2023/01/03 12:25:04;;;;;;;2.72;1.17;;;;;;;-2.94;97.31;99921.25;10518491;28;20059;-85
2023/01/03 12:30:31;;;;;;;2.83;1.73;;;;;;;-2.90;97.54;99929.69;10534184;28;20063;-87
2023/01/03 12:35:37;;;;;;;4.68;1.70;;;;;;;-2.93;97.35;99922.06;10534544;28;20040;-78
2023/01/03 12:40:49;;;;;;;2.70;1.02;;;;;;;-2.87;97.11;99953.44;10475326;28;20056;-83
2023/01/03 12:46:03;;;;;;;1.45;1.08;;;;;;;-2.80;97.07;99964.97;10512851;28;20052;-86
2023/01/03 12:51:06;;;;;;;3.38;1.23;;;;;;;-2.83;96.94;99957.34;10521923;28;20051;-82
2023/01/03 12:56:26;;;;;;;0.60;0.60;;;;;;;-2.86;96.34;99963.94;10532915;28;20049;-80
2023/01/03 13:01:47;;;;;;;0.70;0.70;;;;;;;-2.90;96.50;99970.78;10522599;28;20528;-81
2023/01/03 13:07:21;;;;;;;1.95;0.85;;;;;;;-2.93;96.71;99987.31;10509250;28;20041;-80
2023/01/03 13:12:29;;;;;;;2.33;0.88;;;;;;;-2.96;96.69;100005.69;10515047;28;20061;-81
2023/01/03 13:17:42;;;;;;;1.60;0.80;;;;;;;-2.93;97.11;99997.22;10496284;28;20040;-81
2023/01/03 13:22:55;;;;;;;2.08;1.33;;;;;;;-2.87;97.01;100007.94;10515698;28;20047;-77
2023/01/03 13:28:00;;;;;;;1.60;1.17;;;;;;;-2.84;97.22;100036.22;10524105;28;20044;-78
2023/01/03 13:33:09;;;;;;;0.73;0.47;;;;;;;-2.80;97.60;100029.41;10523504;28;20032;-78
2023/01/03 13:38:15;;;;;;;1.15;0.70;;;;;;;-2.72;97.63;100036.44;10502464;28;20060;-78
2023/01/03 13:43:22;;;;;;;5.28;1.50;;;;;;;-2.70;98.46;100040.56;10514267;28;20454;-77
2023/01/03 13:48:30;;;;;;;2.38;1.30;;;;;;;-2.67;98.87;100055.41;10515905;28;20041;-81
2023/01/03 13:53:56;;;;;;;2.35;1.33;;;;;;;-2.60;99.43;100075.88;10517128;28;20041;-80
2023/01/03 13:59:08;;;;;;;1.23;0.73;;;;;;;-2.55;99.30;100086.81;10519568;28;20495;-83
2023/01/03 14:04:37;;;;;;;1.30;0.75;;;;;;;-2.53;99.24;100089.28;10528928;28;20053;-83
2023/01/03 14:09:47;;;;;;;1.90;0.98;;;;;;;-2.53;99.42;100105.38;10538671;28;20048;-84
2023/01/03 14:14:57;;;;;;;0.70;0.40;;;;;;;-2.56;99.31;100143.41;10532476;28;20063;-85
2023/01/03 14:20:06;;;;;;;0.65;0.40;;;;;;;-2.53;97.83;100121.50;10533950;28;20040;-79
2023/01/03 14:25:34;;;;;;;2.42;0.82;;;;;;;-2.55;96.94;100132.47;10531564;28;20036;-84
2023/01/03 14:30:37;;;;;;;1.25;0.70;;;;;;;-2.57;96.50;100152.50;10520445;28;20040;-80
2023/01/03 14:35:41;;;;;;;0.30;0.30;;;;;;;-2.56;95.50;100159.53;10523450;28;20049;-82
2023/01/03 14:40:45;;;;;;;1.08;0.47;;;;;;;-2.52;94.27;100166.97;10528803;28;20040;-80
2023/01/03 14:45:53;;;;;;;0.32;0.25;;;;;;;-2.52;94.01;100172.34;10512937;28;20052;-78
2023/01/03 14:51:00;;;;;;;0.88;0.63;;;;;;;-2.52;94.20;100174.19;10526013;28;20052;-74
2023/01/03 14:56:02;;;;;;;0.30;0.30;;;;;;;-2.55;94.04;100198.78;10530085;28;20051;-75
2023/01/03 15:01:06;;;;;;;0.52;0.50;;;;;;;-2.58;92.82;100215.31;10526343;28;20047;-76
2023/01/03 15:06:18;;;;;;;1.52;0.70;;;;;;;-2.59;91.72;100235.97;10478659;28;20060;-77
2023/01/03 15:11:27;;;;;;;1.63;0.52;;;;;;;-2.61;91.65;100239.88;10559577;28;20102;-77
2023/01/03 15:16:29;;;;;;;2.38;0.80;;;;;;;-2.61;92.50;100269.44;10532329;28;20447;-77
2023/01/03 15:21:31;;;;;;;0.28;0.28;;;;;;;-2.68;93.34;100265.91;10527935;28;20035;-76
2023/01/03 15:26:45;;;;;;;0.70;0.70;;;;;;;-2.74;93.21;100284.50;10488306;28;20070;-76
2023/01/03 15:31:59;;;;;;;0.88;0.65;;;;;;;-2.76;92.85;100277.69;10526599;28;20051;-77
2023/01/03 15:37:12;;;;;;;0.43;0.40;;;;;;;-2.78;92.71;100285.09;10529414;28;20541;-75
2023/01/03 15:47:41;;;;;;;0.95;0.57;;;;;;;-2.83;91.99;100311.72;10460635;28;20045;-77
2023/01/03 15:52:45;;;;;;;1.67;0.70;;;;;;;-2.87;91.83;100329.28;10577971;28;20036;-76
2023/01/03 15:57:50;;;;;;;1.40;0.55;;;;;;;-2.87;91.94;100322.03;10547026;28;20051;-76
2023/01/03 16:02:52;;;;;;;1.27;0.80;;;;;;;-2.88;92.10;100343.72;10521947;28;20045;-77
2023/01/03 16:07:55;;;;;;;0.47;0.47;;;;;;;-2.92;91.66;100343.31;10535187;28;20040;-77
2023/01/03 16:12:57;;;;;;;1.08;0.47;;;;;;;-2.94;91.52;100345.38;10562936;28;20047;-76
2023/01/03 16:17:59;;;;;;;0.60;0.60;;;;;;;-2.91;91.98;100346.81;10511526;28;20048;-76
2023/01/03 16:23:02;;;;;;;0.63;0.63;;;;;;;-2.92;91.46;100364.78;10491532;28;20036;-75
2023/01/03 16:28:29;;;;;;;1.35;0.85;;;;;;;-2.97;91.69;100379.81;10499309;28;20040;-76
2023/01/03 16:33:33;;;;;;;1.25;0.80;;;;;;;-2.97;91.71;100382.50;10530346;28;20063;-75
2023/01/03 16:38:36;;;;;;;0.55;0.47;;;;;;;-2.97;92.07;100379.81;10518505;28;20048;-76
2023/01/03 16:43:38;;;;;;;1.55;0.90;;;;;;;-2.95;91.77;100394.72;10529278;28;20037;-76
2023/01/03 16:48:42;;;;;;;0.77;0.75;;;;;;;-2.93;91.74;100406.09;10528358;28;20419;-76
2023/01/03 16:53:47;;;;;;;1.17;0.70;;;;;;;-2.89;91.96;100409.19;10522611;28;20040;-76
2023/01/03 16:58:49;;;;;;;0.47;0.30;;;;;;;-2.88;91.93;100422.41;10526216;28;20518;-75
2023/01/03 17:03:56;;;;;;;2.22;0.88;;;;;;;-2.91;92.00;100424.69;10568270;28;20399;-77
2023/01/03 17:09:05;;;;;;;1.83;1.13;;;;;;;-2.95;91.48;100445.72;10557372;28;20048;-75
2023/01/03 17:14:22;;;;;;;0.73;0.52;;;;;;;-2.90;91.64;100458.53;10478189;28;20048;-75
2023/01/03 17:19:25;;;;;;;1.05;0.90;;;;;;;-2.93;91.81;100458.94;10553503;28;20417;-78
2023/01/03 17:24:28;;;;;;;1.30;0.85;;;;;;;-2.93;91.82;100473.19;10530523;28;20055;-76
2023/01/03 17:29:30;;;;;;;0.25;0.25;;;;;;;-2.92;91.50;100479.41;10518735;28;20037;-78
2023/01/03 17:34:32;;;;;;;0.40;0.40;;;;;;;-2.91;91.57;100483.75;10488961;28;20041;-74
2023/01/03 17:39:35;;;;;;;1.45;0.80;;;;;;;-2.91;91.97;100487.25;10501948;28;20040;-73
2023/01/03 17:44:38;;;;;;;2.08;1.10;;;;;;;-2.89;91.73;100493.25;10518898;28;20036;-75
2023/01/03 17:49:40;;;;;;;3.20;0.70;;;;;;;-2.86;92.08;100502.75;10514453;28;20528;-73
2023/01/03 17:54:42;;;;;;;0.50;0.50;;;;;;;-2.93;91.93;100510.78;10516730;28;20051;-74
2023/01/03 17:59:44;;;;;;;2.55;1.10;;;;;;;-2.92;91.88;100516.97;10529172;28;20419;-74
2023/01/03 18:04:48;;;;;;;1.25;1.15;;;;;;;-2.91;92.25;100532.88;10520427;28;20407;-76
2023/01/03 18:09:51;;;;;;;0.70;0.63;;;;;;;-2.91;92.05;100546.31;10517201;28;20410;-74
2023/01/03 18:14:54;;;;;;;1.83;1.13;;;;;;;-2.88;92.36;100548.59;10526395;28;20044;-74
2023/01/03 18:19:57;;;;;;;1.00;0.85;;;;;;;-2.82;92.60;100557.72;10531413;28;20036;-74
2023/01/03 18:24:59;;;;;;;1.58;1.00;;;;;;;-2.83;93.12;100556.88;10518425;28;20056;-74
2023/01/03 18:30:02;;;;;;;2.85;1.80;;;;;;;-2.79;93.22;100576.94;10502410;28;20047;-73
2023/01/03 18:35:05;;;;;;;2.67;1.60;;;;;;;-2.79;93.46;100578.81;10525906;28;20051;-73
2023/01/03 18:40:13;;;;;;;1.35;1.00;;;;;;;-2.80;93.60;100588.72;10526599;28;20057;-73
2023/01/03 18:45:15;;;;;;;1.75;0.63;;;;;;;-2.82;93.31;100585.41;10544987;28;20605;-75
2023/01/03 18:50:18;;;;;;;1.58;1.15;;;;;;;-2.81;93.49;100595.13;10532805;28;20044;-73
2023/01/03 18:55:26;;;;;;;4.53;2.08;;;;;;;-2.75;93.13;100601.59;10518133;28;20048;-74
2023/01/03 19:00:28;;;;;;;3.17;2.00;;;;;;;-2.71;93.25;100607.38;10520761;28;20036;-73
2023/01/03 19:05:31;;;;;;;5.20;2.30;;;;;;;-2.60;93.06;100626.50;10547368;28;20052;-72
2023/01/03 19:10:33;;;;;;;2.67;1.67;;;;;;;-2.53;92.75;100631.91;10548090;28;20419;-73
2023/01/03 19:15:36;;;;;;;2.72;1.80;;;;;;;-2.59;92.58;100630.84;10532373;28;20043;-73
2023/01/03 19:20:38;;;;;;;2.97;2.00;;;;;;;-2.56;92.75;100618.88;10503507;28;20056;-73
2023/01/03 19:25:40;;;;;;;2.33;1.80;;;;;;;-2.57;92.21;100630.63;10524450;28;20518;-73
2023/01/03 19:30:45;;;;;;;3.05;1.50;;;;;;;-2.53;92.51;100631.91;10524798;28;20040;-86
2023/01/03 19:35:48;;;;;;;2.97;1.73;;;;;;;-2.51;92.19;100645.97;10510823;28;20033;-78
2023/01/03 19:40:50;;;;;;;2.55;1.92;;;;;;;-2.49;92.04;100650.09;10533369;28;20086;-80
2023/01/03 19:45:53;;;;;;;3.80;2.33;;;;;;;-2.51;91.81;100662.06;10528559;28;20052;-79
2023/01/03 19:50:55;;;;;;;2.88;2.17;;;;;;;-2.42;91.92;100666.28;10523582;28;20040;-78
2023/01/03 19:56:01;;;;;;;5.55;2.70;;;;;;;-2.27;91.95;100669.69;10524899;28;20047;-80
2023/01/03 20:01:04;;;;;;;4.25;2.60;;;;;;;-2.08;92.06;100670.00;10503286;28;20049;-79
2023/01/03 20:06:15;;;;;;;3.97;2.20;;;;;;;-1.85;91.29;100679.47;10504903;28;20436;-79
2023/01/03 20:11:19;;;;;;;3.17;2.40;;;;;;;-1.79;91.09;100687.75;10524854;28;20033;-79
2023/01/03 20:16:22;;;;;;;4.00;2.03;;;;;;;-1.93;89.99;100705.66;10520037;28;20075;-79
2023/01/03 20:21:29;;;;;;;3.38;2.42;;;;;;;-2.03;90.43;100719.47;10525184;28;20479;-78
2023/01/03 20:26:32;;;;;;;3.75;2.33;;;;;;;-2.20;90.29;100732.41;10526250;28;20048;-78
2023/01/03 20:31:35;;;;;;;3.63;2.53;;;;;;;-2.26;90.08;100735.00;10527934;28;20041;-79
2023/01/03 20:36:43;;;;;;;2.97;2.10;;;;;;;-2.31;89.77;100740.97;10523991;28;20053;-78
2023/01/03 20:41:45;;;;;;;2.97;1.88;;;;;;;-2.41;89.17;100753.09;10509335;28;20043;-79
2023/01/03 20:46:47;;;;;;;2.92;1.65;;;;;;;-2.50;88.63;100766.66;10513023;28;20052;-77
2023/01/03 20:51:51;;;;;;;2.78;1.55;;;;;;;-2.53;88.66;100776.97;10530929;28;20054;-80
2023/01/03 20:57:20;;;;;;;3.42;1.75;;;;;;;-2.56;88.73;100774.66;10503824;28;20036;-84
2023/01/03 21:02:22;;;;;;;3.25;1.67;;;;;;;-2.40;89.13;100781.63;10522640;28;20032;-78
2023/01/03 21:12:50;;;;;;;3.35;2.15;;;;;;;-2.65;90.05;100799.97;10512499;28;20060;-87
2023/01/03 21:17:53;;;;;;;2.85;2.10;;;;;;;-2.72;89.84;100804.47;10546033;28;20043;-86
2023/01/03 21:22:55;;;;;;;1.90;1.45;;;;;;;-2.81;90.08;100811.78;10538547;28;20037;-87
2023/01/03 21:27:59;;;;;;;2.00;1.55;;;;;;;-2.81;89.36;100818.00;10500254;28;20049;-84
2023/01/03 21:33:01;;;;;;;1.85;1.23;;;;;;;-2.72;88.98;100820.56;10520243;28;20683;-80
2023/01/03 21:38:03;;;;;;;1.20;1.08;;;;;;;-2.64;87.17;100833.88;10529162;28;20048;-82
2023/01/03 21:43:06;;;;;;;2.88;1.80;;;;;;;-2.71;86.72;100838.34;10533124;28;20041;-83
2023/01/03 21:48:12;;;;;;;2.85;1.50;;;;;;;-2.67;86.76;100853.06;10531839;28;20044;-84
2023/01/03 21:53:20;;;;;;;2.70;1.90;;;;;;;-2.63;87.17;100862.41;10531355;28;20032;-85
2023/01/03 21:58:23;;;;;;;2.70;2.00;;;;;;;-2.49;87.48;100858.84;10502368;28;20068;-86
2023/01/03 22:08:46;;;;;;;2.90;1.83;;;;;;;-2.62;87.88;100853.31;10525323;28;20054;-83
2023/01/03 22:13:48;;;;;;;2.60;1.80;;;;;;;-2.66;87.45;100860.09;10511213;28;20499;-84
2023/01/03 22:18:51;;;;;;;2.50;1.65;;;;;;;-2.65;87.60;100864.44;10518105;28;20414;-77
2023/01/03 22:23:53;;;;;;;2.58;1.85;;;;;;;-2.76;87.21;100872.00;10528189;28;20052;-77
2023/01/03 22:28:56;;;;;;;2.47;1.70;;;;;;;-2.71;86.26;100867.91;10536842;28;20049;-83
2023/01/03 22:33:58;;;;;;;2.58;1.70;;;;;;;-2.73;85.43;100868.09;10534166;28;20510;-76
2023/01/03 22:39:00;;;;;;;2.67;1.67;;;;;;;-2.79;85.51;100860.75;10534375;28;20060;-81
2023/01/03 22:44:02;;;;;;;1.58;1.38;;;;;;;-2.93;85.64;100862.47;10532689;28;20044;-79
2023/01/03 22:49:05;;;;;;;1.88;1.42;;;;;;;-2.95;85.68;100864.53;10529959;28;20040;-81
2023/01/03 22:54:08;;;;;;;2.17;1.48;;;;;;;-3.03;85.15;100869.97;10530329;28;20152;-78
2023/01/03 22:59:10;;;;;;;1.48;1.30;;;;;;;-2.92;85.49;100869.53;10530881;28;20060;-75
2023/01/03 23:04:13;;;;;;;1.20;1.00;;;;;;;-3.03;85.39;100873.50;10506208;28;20032;-79
2023/01/03 23:09:15;;;;;;;1.58;1.10;;;;;;;-3.00;85.96;100871.47;10503247;28;20032;-78
2023/01/03 23:14:19;;;;;;;1.70;0.95;;;;;;;-2.92;85.88;100884.78;10531872;28;20531;-76
2023/01/03 23:19:25;;;;;;;1.58;1.30;;;;;;;-2.94;85.26;100890.34;10507909;28;20037;-76
2023/01/03 23:24:27;;;;;;;2.05;1.55;;;;;;;-2.91;85.57;100889.97;10499863;28;20059;-75
2023/01/03 23:29:29;;;;;;;1.33;1.08;;;;;;;-2.86;84.78;100882.19;10530086;28;20506;-76
2023/01/03 23:34:32;;;;;;;1.02;0.93;;;;;;;-3.05;84.52;100885.44;10530883;28;20055;-79
2023/01/03 23:39:34;;;;;;;1.20;1.10;;;;;;;-3.04;84.52;100900.53;10515312;28;20379;-75
2023/01/03 23:44:36;;;;;;;1.10;0.90;;;;;;;-3.23;84.32;100890.34;10514243;28;20056;-77
2023/01/03 23:49:39;;;;;;;1.33;0.90;;;;;;;-3.05;84.68;100893.50;10526469;28;20779;-75
2023/01/03 23:54:41;;;;;;;1.52;0.80;;;;;;;-2.80;84.14;100894.00;10493742;28;20041;-75
2023/01/03 23:59:43;;;;;;;1.35;0.90;;;;;;;-2.74;83.76;100898.66;10497592;28;20055;-76
